createdAt,value
2016-05-05T00:00:14.320Z,20.02
2016-05-05T00:01:15.011Z,20.12
2016-05-05T00:02:14.451Z,20.1
2016-05-05T00:03:14.500Z,20.04
2016-05-05T00:04:14.456Z,20.12
2016-05-05T00:05:16.583Z,20.01
2016-05-05T00:06:15.227Z,20.05
2016-05-05T00:07:14.667Z,20.07
2016-05-05T00:08:14.857Z,20.02
2016-05-05T00:09:14.892Z,20
2016-05-05T00:10:14.441Z,19.97
2016-05-05T00:11:15.663Z,19.89
2016-05-05T00:12:15.571Z,19.97
2016-05-05T00:13:14.636Z,19.95
2016-05-05T00:14:14.827Z,19.92
2016-05-05T00:15:14.266Z,19.97
2016-05-05T00:16:15.097Z,19.97
2016-05-05T00:17:14.303Z,20
2016-05-05T00:18:14.822Z,20.04
2016-05-05T00:19:15.355Z,19.95
2016-05-05T00:20:14.452Z,19.9
2016-05-05T00:21:14.408Z,19.89
2016-05-05T00:22:14.395Z,19.92
2016-05-05T00:23:14.929Z,19.93
2016-05-05T00:24:14.604Z,19.9
2016-05-05T00:25:14.653Z,19.92
2016-05-05T00:26:15.406Z,20
2016-05-05T00:27:14.440Z,19.87
2016-05-05T00:28:14.442Z,19.92
2016-05-05T00:29:14.445Z,19.92
2016-05-05T00:30:14.447Z,19.89
2016-05-05T00:31:15.795Z,19.95
2016-05-05T00:32:14.015Z,19.82
2016-05-05T00:33:14.971Z,19.92
2016-05-05T00:34:14.365Z,19.9
2016-05-05T00:35:14.773Z,19.8
2016-05-05T00:36:14.370Z,19.87
2016-05-05T00:37:16.264Z,19.89
2016-05-05T00:38:15.391Z,19.89
2016-05-05T00:39:15.003Z,19.89
2016-05-05T00:40:14.349Z,19.86
2016-05-05T00:41:16.164Z,19.8
2016-05-05T00:42:14.746Z,19.79
2016-05-05T00:43:14.749Z,19.8
2016-05-05T00:44:14.751Z,19.75
2016-05-05T00:45:14.332Z,19.8
2016-05-05T00:46:14.537Z,19.78
2016-05-05T00:47:14.525Z,19.8
2016-05-05T00:48:14.137Z,19.79
2016-05-05T00:49:14.733Z,19.85
2016-05-05T00:50:14.126Z,19.8
2016-05-05T00:51:14.317Z,19.83
2016-05-05T00:52:13.960Z,19.83
2016-05-05T00:53:13.963Z,19.83
2016-05-05T00:54:15.121Z,19.82
2016-05-05T00:55:14.718Z,19.82
2016-05-05T00:56:14.565Z,19.74
2016-05-05T00:57:14.302Z,19.74
2016-05-05T00:58:14.352Z,19.64
2016-05-05T00:59:14.495Z,19.65
2016-05-05T01:00:14.700Z,19.65
2016-05-05T01:01:14.297Z,19.64
2016-05-05T01:02:14.487Z,19.65
2016-05-05T01:03:14.692Z,19.63
2016-05-05T01:04:14.320Z,19.61
2016-05-05T01:05:14.683Z,19.57
2016-05-05T01:06:14.326Z,19.56
2016-05-05T01:07:14.063Z,19.57
2016-05-05T01:08:14.269Z,19.57
2016-05-05T01:09:14.739Z,19.6
2016-05-05T01:10:14.258Z,19.55
2016-05-05T01:11:14.261Z,19.56
2016-05-05T01:12:14.263Z,19.5
2016-05-05T01:13:14.313Z,19.55
2016-05-05T01:14:14.644Z,19.53
2016-05-05T01:15:14.663Z,19.5
2016-05-05T01:16:14.306Z,19.5
2016-05-05T01:17:14.121Z,19.47
2016-05-05T01:18:14.093Z,19.5
2016-05-05T01:19:14.235Z,19.43
2016-05-05T01:20:14.082Z,19.45
2016-05-05T01:21:14.429Z,19.47
2016-05-05T01:22:14.447Z,19.37
2016-05-05T01:23:14.434Z,19.35
2016-05-05T01:24:14.312Z,19.35
2016-05-05T01:25:14.424Z,19.24
2016-05-05T01:26:14.615Z,19.24
2016-05-05T01:27:14.210Z,19.2
2016-05-05T01:28:14.245Z,19.19
2016-05-05T01:29:14.403Z,19.06
2016-05-05T01:30:14.609Z,19.1
2016-05-05T01:31:14.393Z,19.06
2016-05-05T01:32:14.443Z,18.96
2016-05-05T01:33:14.383Z,18.97
2016-05-05T01:34:13.823Z,18.96
2016-05-05T01:35:14.201Z,18.93
2016-05-05T01:36:14.423Z,18.76
2016-05-05T01:37:14.269Z,18.76
2016-05-05T01:38:14.178Z,18.84
2016-05-05T01:39:14.383Z,18.79
2016-05-05T01:40:14.167Z,18.71
2016-05-05T01:41:14.358Z,18.71
2016-05-05T01:42:14.564Z,18.61
2016-05-05T01:43:14.363Z,18.65
2016-05-05T01:44:14.350Z,18.51
2016-05-05T01:45:14.353Z,18.5
2016-05-05T01:46:13.996Z,18.47
2016-05-05T01:47:13.951Z,18.51
2016-05-05T01:48:14.548Z,18.38
2016-05-05T01:49:13.972Z,18.5
2016-05-05T01:50:14.132Z,18.35
2016-05-05T01:51:14.119Z,18.36
2016-05-05T01:52:13.939Z,18.35
2016-05-05T01:53:14.234Z,18.29
2016-05-05T01:54:14.233Z,18.16
2016-05-05T01:55:14.669Z,18.24
2016-05-05T01:56:14.511Z,18.19
2016-05-05T01:57:14.527Z,18.19
2016-05-05T01:58:14.389Z,18.16
2016-05-05T01:59:14.766Z,18.17
2016-05-05T02:00:14.409Z,18.11
2016-05-05T02:01:14.381Z,18.06
2016-05-05T02:02:14.582Z,18.11
2016-05-05T02:03:14.372Z,18.17
2016-05-05T02:04:14.598Z,18.11
2016-05-05T02:05:14.373Z,18.1
2016-05-05T02:06:14.631Z,18.02
2016-05-05T02:07:14.590Z,17.99
2016-05-05T02:08:14.580Z,18.01
2016-05-05T02:09:14.569Z,17.94
2016-05-05T02:10:14.370Z,17.87
2016-05-05T02:11:14.562Z,17.9
2016-05-05T02:12:14.582Z,17.92
2016-05-05T02:13:14.367Z,17.87
2016-05-05T02:14:14.760Z,17.98
2016-05-05T02:15:14.562Z,17.84
2016-05-05T02:16:14.361Z,17.79
2016-05-05T02:17:14.771Z,17.8
2016-05-05T02:18:14.555Z,17.77
2016-05-05T02:19:14.543Z,17.73
2016-05-05T02:20:14.061Z,17.71
2016-05-05T02:21:14.549Z,17.66
2016-05-05T02:22:14.584Z,17.71
2016-05-05T02:23:14.338Z,17.71
2016-05-05T02:24:14.184Z,17.63
2016-05-05T02:25:14.734Z,17.63
2016-05-05T02:26:14.517Z,17.55
2016-05-05T02:27:14.317Z,17.54
2016-05-05T02:28:14.335Z,17.52
2016-05-05T02:29:14.713Z,17.52
2016-05-05T02:30:14.154Z,17.49
2016-05-05T02:31:14.500Z,17.43
2016-05-05T02:32:14.284Z,17.43
2016-05-05T02:33:14.270Z,17.36
2016-05-05T02:34:14.476Z,17.36
2016-05-05T02:35:14.073Z,17.35
2016-05-05T02:36:14.075Z,17.3
2016-05-05T02:37:14.484Z,17.3
2016-05-05T02:38:14.472Z,17.27
2016-05-05T02:39:15.053Z,17.24
2016-05-05T02:40:14.650Z,17.22
2016-05-05T02:41:14.448Z,17.24
2016-05-05T02:42:14.639Z,17.25
2016-05-05T02:43:14.657Z,17.12
2016-05-05T02:44:14.082Z,17.12
2016-05-05T02:45:14.225Z,17.13
2016-05-05T02:46:14.633Z,17.13
2016-05-05T02:47:14.433Z,17.07
2016-05-05T02:48:14.264Z,17.12
2016-05-05T02:49:14.407Z,17.07
2016-05-05T02:50:14.411Z,17.06
2016-05-05T02:51:14.257Z,17.03
2016-05-05T02:52:14.400Z,17.03
2016-05-05T02:53:14.402Z,16.94
2016-05-05T02:54:14.640Z,17.02
2016-05-05T02:55:13.815Z,16.91
2016-05-05T02:56:14.177Z,16.92
2016-05-05T02:57:14.570Z,16.92
2016-05-05T02:58:14.166Z,16.85
2016-05-05T02:59:14.013Z,16.87
2016-05-05T03:00:14.563Z,16.84
2016-05-05T03:01:14.362Z,16.88
2016-05-05T03:02:14.568Z,16.84
2016-05-05T03:03:14.148Z,16.84
2016-05-05T03:04:14.135Z,16.8
2016-05-05T03:05:14.154Z,16.8
2016-05-05T03:06:14.531Z,16.76
2016-05-05T03:07:14.518Z,16.69
2016-05-05T03:08:14.521Z,16.69
2016-05-05T03:09:14.181Z,16.76
2016-05-05T03:10:14.308Z,16.67
2016-05-05T03:11:14.107Z,16.73
2016-05-05T03:12:14.141Z,16.7
2016-05-05T03:13:14.097Z,16.69
2016-05-05T03:14:14.334Z,16.66
2016-05-05T03:15:14.477Z,16.65
2016-05-05T03:16:14.277Z,16.57
2016-05-05T03:17:14.264Z,16.62
2016-05-05T03:18:14.267Z,16.66
2016-05-05T03:19:14.458Z,16.57
2016-05-05T03:20:14.257Z,16.57
2016-05-05T03:21:14.290Z,16.54
2016-05-05T03:22:14.246Z,16.49
2016-05-05T03:23:14.452Z,16.52
2016-05-05T03:24:14.033Z,16.44
2016-05-05T03:25:14.442Z,16.48
2016-05-05T03:26:13.866Z,16.47
2016-05-05T03:27:14.010Z,16.52
2016-05-05T03:28:14.418Z,16.49
2016-05-05T03:29:14.219Z,16.58
2016-05-05T03:30:14.409Z,16.52
2016-05-05T03:31:13.989Z,16.51
2016-05-05T03:32:14.039Z,16.51
2016-05-05T03:33:14.042Z,16.52
2016-05-05T03:34:14.185Z,16.52
2016-05-05T03:35:14.173Z,16.44
2016-05-05T03:36:14.175Z,16.4
2016-05-05T03:37:14.162Z,16.4
2016-05-05T03:38:14.149Z,16.42
2016-05-05T03:39:14.151Z,16.44
2016-05-05T03:40:14.154Z,16.37
2016-05-05T03:41:14.141Z,16.37
2016-05-05T03:42:14.331Z,16.39
2016-05-05T03:43:14.334Z,16.32
2016-05-05T03:44:13.915Z,16.39
2016-05-05T03:45:13.902Z,16.4
2016-05-05T03:46:13.905Z,16.36
2016-05-05T03:47:13.736Z,16.34
2016-05-05T03:48:13.895Z,16.29
2016-05-05T03:49:14.288Z,16.29
2016-05-05T03:50:14.087Z,16.27
2016-05-05T03:51:13.715Z,16.21
2016-05-05T03:52:13.921Z,16.14
2016-05-05T03:53:14.266Z,16.16
2016-05-05T03:54:14.332Z,16.13
2016-05-05T03:55:14.069Z,16.16
2016-05-05T03:56:14.041Z,16.14
2016-05-05T03:57:14.247Z,16.13
2016-05-05T03:58:14.030Z,16.07
2016-05-05T03:59:14.237Z,16.08
2016-05-05T04:00:14.020Z,16
2016-05-05T04:01:14.023Z,16.02
2016-05-05T04:02:13.854Z,15.92
2016-05-05T04:03:14.012Z,15.98
2016-05-05T04:04:13.796Z,15.96
2016-05-05T04:05:13.987Z,15.98
2016-05-05T04:06:13.787Z,15.92
2016-05-05T04:07:13.790Z,15.92
2016-05-05T04:08:13.573Z,15.95
2016-05-05T04:09:14.607Z,15.8
2016-05-05T04:10:13.969Z,15.8
2016-05-05T04:11:13.769Z,15.89
2016-05-05T04:12:13.943Z,15.81
2016-05-05T04:13:13.962Z,15.92
2016-05-05T04:14:14.152Z,15.86
2016-05-05T04:15:13.936Z,15.86
2016-05-05T04:16:13.736Z,15.84
2016-05-05T04:17:13.926Z,15.84
2016-05-05T04:18:13.756Z,15.71
2016-05-05T04:19:13.494Z,15.77
2016-05-05T04:20:14.105Z,15.67
2016-05-05T04:21:13.702Z,15.68
2016-05-05T04:22:13.892Z,15.68
2016-05-05T04:23:14.097Z,15.74
2016-05-05T04:24:14.819Z,15.73
2016-05-05T04:25:13.682Z,15.71
2016-05-05T04:26:14.075Z,15.63
2016-05-05T04:27:13.281Z,15.62
2016-05-05T04:28:13.643Z,15.6
2016-05-05T04:29:13.443Z,15.62
2016-05-05T04:30:13.429Z,15.56
2016-05-05T04:31:13.479Z,15.58
2016-05-05T04:32:13.638Z,15.59
2016-05-05T04:33:13.265Z,15.58
2016-05-05T04:34:13.440Z,15.51
2016-05-05T04:35:13.801Z,15.51
2016-05-05T04:36:13.868Z,15.52
2016-05-05T04:37:13.401Z,15.47
2016-05-05T04:38:13.779Z,15.51
2016-05-05T04:39:14.391Z,15.49
2016-05-05T04:40:13.987Z,15.55
2016-05-05T04:41:13.803Z,15.43
2016-05-05T04:42:13.556Z,15.4
2016-05-05T04:43:13.948Z,15.45
2016-05-05T04:44:13.436Z,15.49
2016-05-05T04:45:13.548Z,15.44
2016-05-05T04:46:13.754Z,15.44
2016-05-05T04:47:13.725Z,15.47
2016-05-05T04:48:13.930Z,15.41
2016-05-05T04:49:13.325Z,15.34
2016-05-05T04:50:13.514Z,15.31
2016-05-05T04:51:13.548Z,15.31
2016-05-05T04:52:13.550Z,15.37
2016-05-05T04:53:13.679Z,15.35
2016-05-05T04:54:13.556Z,15.31
2016-05-05T04:55:13.324Z,15.26
2016-05-05T04:56:13.453Z,15.3
2016-05-05T04:57:13.299Z,15.3
2016-05-05T04:58:13.441Z,15.31
2016-05-05T04:59:13.086Z,15.22
2016-05-05T05:00:13.635Z,15.22
2016-05-05T05:01:13.841Z,15.25
2016-05-05T05:02:13.828Z,15.22
2016-05-05T05:03:13.612Z,15.22
2016-05-05T05:04:13.614Z,15.16
2016-05-05T05:05:13.664Z,15.19
2016-05-05T05:06:13.418Z,15.19
2016-05-05T05:07:13.795Z,15.18
2016-05-05T05:08:13.626Z,15.23
2016-05-05T05:09:14.081Z,15.25
2016-05-05T05:10:13.584Z,15.19
2016-05-05T05:11:13.570Z,15.23
2016-05-05T05:12:13.152Z,15.27
2016-05-05T05:13:13.764Z,15.18
2016-05-05T05:14:13.548Z,15.18
2016-05-05T05:15:13.551Z,15.16
2016-05-05T05:16:13.537Z,15.18
2016-05-05T05:17:13.321Z,15.16
2016-05-05T05:18:13.527Z,15.13
2016-05-05T05:19:13.514Z,15.19
2016-05-05T05:20:13.126Z,15.2
2016-05-05T05:21:13.301Z,15.18
2016-05-05T05:22:13.491Z,15.15
2016-05-05T05:23:13.681Z,15.16
2016-05-05T05:24:13.309Z,15.15
2016-05-05T05:25:13.483Z,15.08
2016-05-05T05:26:13.471Z,15.1
2016-05-05T05:27:13.457Z,15.19
2016-05-05T05:28:13.304Z,15.19
2016-05-05T05:29:13.447Z,15.19
2016-05-05T05:30:13.435Z,15.16
2016-05-05T05:31:13.421Z,15.1
2016-05-05T05:32:13.643Z,15.1
2016-05-05T05:33:13.208Z,15.18
2016-05-05T05:34:13.242Z,15.15
2016-05-05T05:35:13.416Z,15.16
2016-05-05T05:36:12.826Z,15.1
2016-05-05T05:37:13.031Z,15.19
2016-05-05T05:38:13.378Z,15.13
2016-05-05T05:39:13.193Z,15.13
2016-05-05T05:40:12.962Z,15.13
2016-05-05T05:41:13.198Z,15.22
2016-05-05T05:42:13.154Z,15.1
2016-05-05T05:43:13.344Z,15.2
2016-05-05T05:44:13.144Z,15.19
2016-05-05T05:45:13.350Z,15.16
2016-05-05T05:46:12.915Z,15.16
2016-05-05T05:47:12.917Z,15.04
2016-05-05T05:48:13.342Z,15.19
2016-05-05T05:49:13.517Z,15.16
2016-05-05T05:50:13.097Z,15.2
2016-05-05T05:51:13.288Z,15.19
2016-05-05T05:52:13.087Z,15.04
2016-05-05T05:53:13.480Z,15.07
2016-05-05T05:54:13.061Z,15.19
2016-05-05T05:55:13.049Z,15.16
2016-05-05T05:56:13.457Z,15.18
2016-05-05T05:57:13.038Z,15.15
2016-05-05T05:58:13.291Z,15.16
2016-05-05T05:59:13.435Z,15.22
2016-05-05T06:00:13.218Z,15.16
2016-05-05T06:01:13.221Z,15.15
2016-05-05T06:02:12.848Z,15.15
2016-05-05T06:03:13.257Z,15.13
2016-05-05T06:04:13.213Z,15.12
2016-05-05T06:05:12.982Z,15.19
2016-05-05T06:06:12.985Z,15.15
2016-05-05T06:07:12.971Z,15.22
2016-05-05T06:08:13.161Z,15.15
2016-05-05T06:09:12.851Z,15.2
2016-05-05T06:10:12.965Z,15.23
2016-05-05T06:11:13.342Z,15.2
2016-05-05T06:12:12.937Z,15.15
2016-05-05T06:13:12.722Z,15.3
2016-05-05T06:14:13.115Z,15.23
2016-05-05T06:15:12.961Z,15.35
2016-05-05T06:16:12.901Z,15.26
2016-05-05T06:17:13.154Z,15.33
2016-05-05T06:18:13.110Z,15.27
2016-05-05T06:19:13.300Z,15.35
2016-05-05T06:20:12.881Z,15.33
2016-05-05T06:21:12.931Z,15.31
2016-05-05T06:22:12.886Z,15.34
2016-05-05T06:23:12.680Z,15.44
2016-05-05T06:24:13.027Z,15.47
2016-05-05T06:25:12.638Z,15.49
2016-05-05T06:26:12.627Z,15.4
2016-05-05T06:27:12.832Z,15.49
2016-05-05T06:28:12.818Z,15.49
2016-05-05T06:29:13.024Z,15.41
2016-05-05T06:30:12.855Z,15.45
2016-05-05T06:31:12.858Z,15.51
2016-05-05T06:32:12.799Z,15.59
2016-05-05T06:33:13.207Z,15.59
2016-05-05T06:34:13.195Z,15.53
2016-05-05T06:35:12.993Z,15.6
2016-05-05T06:36:13.184Z,15.59
2016-05-05T06:37:13.171Z,15.63
2016-05-05T06:38:12.955Z,15.7
2016-05-05T06:39:13.364Z,15.67
2016-05-05T06:40:12.739Z,15.71
2016-05-05T06:41:12.367Z,15.88
2016-05-05T06:42:12.935Z,15.86
2016-05-05T06:43:12.935Z,15.86
2016-05-05T06:44:13.128Z,15.92
2016-05-05T06:45:12.909Z,15.91
2016-05-05T06:46:13.117Z,15.83
2016-05-05T06:47:12.898Z,15.89
2016-05-05T06:48:12.526Z,15.89
2016-05-05T06:49:12.685Z,15.92
2016-05-05T06:50:12.875Z,15.92
2016-05-05T06:51:12.675Z,15.96
2016-05-05T06:52:12.865Z,15.98
2016-05-05T06:53:12.696Z,15.91
2016-05-05T06:54:13.011Z,15.93
2016-05-05T06:55:12.702Z,15.88
2016-05-05T06:56:13.047Z,15.96
2016-05-05T06:57:13.035Z,15.95
2016-05-05T06:58:12.678Z,16
2016-05-05T06:59:12.602Z,15.93
2016-05-05T07:00:12.480Z,15.92
2016-05-05T07:01:12.607Z,15.99
2016-05-05T07:02:12.580Z,15.92
2016-05-05T07:03:12.598Z,15.98
2016-05-05T07:04:12.632Z,16.1
2016-05-05T07:05:12.979Z,16.08
2016-05-05T07:06:12.575Z,16.07
2016-05-05T07:07:12.765Z,16.07
2016-05-05T07:08:12.815Z,16.21
2016-05-05T07:09:12.614Z,16.16
2016-05-05T07:10:12.585Z,16.14
2016-05-05T07:11:12.338Z,16.11
2016-05-05T07:12:12.528Z,16.18
2016-05-05T07:13:12.578Z,16.17
2016-05-05T07:14:12.534Z,16.22
2016-05-05T07:15:12.756Z,16.27
2016-05-05T07:16:12.508Z,16.27
2016-05-05T07:17:12.916Z,16.37
2016-05-05T07:18:12.342Z,16.32
2016-05-05T07:19:12.328Z,16.37
2016-05-05T07:20:12.519Z,16.42
2016-05-05T07:21:12.536Z,16.45
2016-05-05T07:22:12.274Z,16.52
2016-05-05T07:23:12.667Z,16.55
2016-05-05T07:24:12.419Z,16.52
2016-05-05T07:25:12.235Z,16.59
2016-05-05T07:26:12.488Z,16.63
2016-05-05T07:27:12.850Z,16.65
2016-05-05T07:28:12.837Z,16.63
2016-05-05T07:29:12.636Z,16.65
2016-05-05T07:30:12.421Z,16.65
2016-05-05T07:31:12.830Z,16.66
2016-05-05T07:32:12.207Z,16.62
2016-05-05T07:33:12.601Z,16.66
2016-05-05T07:34:12.604Z,16.7
2016-05-05T07:35:12.590Z,16.72
2016-05-05T07:36:12.593Z,16.72
2016-05-05T07:37:12.783Z,16.76
2016-05-05T07:38:12.364Z,16.81
2016-05-05T07:39:12.304Z,16.81
2016-05-05T07:40:12.759Z,16.92
2016-05-05T07:41:12.154Z,16.88
2016-05-05T07:42:12.750Z,16.88
2016-05-05T07:43:12.548Z,16.94
2016-05-05T07:44:12.552Z,17.02
2016-05-05T07:45:12.117Z,17.03
2016-05-05T07:46:12.526Z,17.07
2016-05-05T07:47:12.309Z,17.07
2016-05-05T07:48:12.719Z,17.1
2016-05-05T07:49:12.159Z,17.12
2016-05-05T07:50:12.489Z,17.18
2016-05-05T07:51:12.509Z,17.24
2016-05-05T07:52:12.120Z,17.25
2016-05-05T07:53:12.280Z,17.25
2016-05-05T07:54:12.282Z,17.24
2016-05-05T07:55:12.472Z,17.22
2016-05-05T07:56:12.474Z,17.27
2016-05-05T07:57:12.055Z,17.35
2016-05-05T07:58:12.496Z,17.39
2016-05-05T07:59:12.499Z,17.31
2016-05-05T08:00:12.236Z,17.39
2016-05-05T08:01:12.441Z,17.42
2016-05-05T08:02:12.069Z,17.47
2016-05-05T08:03:12.227Z,17.49
2016-05-05T08:04:12.215Z,17.42
2016-05-05T08:05:12.202Z,17.39
2016-05-05T08:06:12.205Z,17.45
2016-05-05T08:07:12.208Z,17.43
2016-05-05T08:08:11.991Z,17.45
2016-05-05T08:09:12.275Z,17.45
2016-05-05T08:10:12.169Z,17.47
2016-05-05T08:11:12.374Z,17.52
2016-05-05T08:12:12.581Z,17.46
2016-05-05T08:13:12.223Z,17.45
2016-05-05T08:14:12.367Z,17.49
2016-05-05T08:15:12.026Z,17.47
2016-05-05T08:16:12.342Z,17.54
2016-05-05T08:17:12.187Z,17.5
2016-05-05T08:18:12.127Z,17.55
2016-05-05T08:19:12.178Z,17.6
2016-05-05T08:20:13.727Z,17.58
2016-05-05T08:21:12.323Z,17.52
2016-05-05T08:22:12.514Z,17.52
2016-05-05T08:23:12.361Z,17.52
2016-05-05T08:24:12.331Z,17.5
2016-05-05T08:25:13.803Z,17.74
2016-05-05T08:26:11.914Z,17.66
2016-05-05T08:27:12.089Z,17.71
2016-05-05T08:28:12.124Z,17.71
2016-05-05T08:29:12.470Z,17.71
2016-05-05T08:30:12.269Z,17.71
2016-05-05T08:31:11.694Z,17.79
2016-05-05T08:32:12.260Z,17.77
2016-05-05T08:33:12.449Z,17.86
2016-05-05T08:34:12.030Z,17.86
2016-05-05T08:35:12.033Z,17.84
2016-05-05T08:36:12.238Z,17.86
2016-05-05T08:37:12.429Z,17.94
2016-05-05T08:38:12.057Z,17.94
2016-05-05T08:39:13.637Z,17.87
2016-05-05T08:40:12.406Z,17.99
2016-05-05T08:41:12.392Z,18.03
2016-05-05T08:42:12.036Z,17.98
2016-05-05T08:43:12.398Z,18.1
2016-05-05T08:44:11.979Z,18.03
2016-05-05T08:45:11.778Z,18.11
2016-05-05T08:46:12.173Z,18.11
2016-05-05T08:47:12.159Z,18.11
2016-05-05T08:48:12.380Z,18.08
2016-05-05T08:49:12.351Z,18.11
2016-05-05T08:50:11.761Z,18.11
2016-05-05T08:51:11.576Z,18.11
2016-05-05T08:52:12.141Z,18.1
2016-05-05T08:53:11.941Z,18.14
2016-05-05T08:54:12.334Z,18.17
2016-05-05T08:55:11.914Z,18.21
2016-05-05T08:56:11.917Z,18.21
2016-05-05T08:57:12.123Z,18.2
2016-05-05T08:58:12.111Z,18.29
2016-05-05T08:59:11.738Z,18.35
2016-05-05T09:00:11.896Z,18.31
2016-05-05T09:01:12.306Z,18.34
2016-05-05T09:02:11.731Z,18.31
2016-05-05T09:03:12.279Z,18.45
2016-05-05T09:04:11.736Z,18.35
2016-05-05T09:05:11.910Z,18.42
2016-05-05T09:06:11.866Z,18.44
2016-05-05T09:07:12.056Z,18.42
2016-05-05T09:08:12.277Z,18.44
2016-05-05T09:09:12.280Z,18.39
2016-05-05T09:10:11.690Z,18.49
2016-05-05T09:11:12.082Z,18.53
2016-05-05T09:12:11.679Z,18.56
2016-05-05T09:13:11.823Z,18.54
2016-05-05T09:14:11.826Z,18.53
2016-05-05T09:15:12.062Z,18.66
2016-05-05T09:16:12.034Z,18.72
2016-05-05T09:17:12.006Z,18.72
2016-05-05T09:18:12.212Z,18.75
2016-05-05T09:19:11.791Z,18.71
2016-05-05T09:20:12.217Z,18.79
2016-05-05T09:21:12.047Z,18.75
2016-05-05T09:22:11.784Z,18.84
2016-05-05T09:23:11.834Z,18.75
2016-05-05T09:24:11.992Z,18.75
2016-05-05T09:25:12.183Z,18.79
2016-05-05T09:26:11.607Z,18.9
2016-05-05T09:27:11.658Z,18.93
2016-05-05T09:28:12.175Z,18.9
2016-05-05T09:29:11.569Z,18.93
2016-05-05T09:30:12.057Z,19
2016-05-05T09:31:11.956Z,18.99
2016-05-05T09:32:11.741Z,18.96
2016-05-05T09:33:11.994Z,19
2016-05-05T09:34:11.934Z,18.93
2016-05-05T09:35:11.921Z,19.09
2016-05-05T09:36:11.767Z,19.07
2016-05-05T09:37:11.552Z,18.97
2016-05-05T09:38:12.116Z,19.05
2016-05-05T09:39:11.571Z,19.13
2016-05-05T09:40:11.450Z,19.15
2016-05-05T09:41:11.546Z,19.07
2016-05-05T09:42:11.908Z,19.12
2016-05-05T09:43:12.093Z,19.1
2016-05-05T09:44:11.674Z,19.24
2016-05-05T09:45:11.692Z,19.13
2016-05-05T09:46:11.881Z,19.24
2016-05-05T09:47:11.729Z,19.24
2016-05-05T09:48:12.262Z,19.19
2016-05-05T09:49:11.718Z,19.25
2016-05-05T09:50:12.081Z,19.25
2016-05-05T09:51:11.864Z,19.28
2016-05-05T09:52:11.461Z,19.24
2016-05-05T09:53:11.448Z,19.24
2016-05-05T09:54:11.872Z,19.27
2016-05-05T09:55:11.859Z,19.28
2016-05-05T09:56:11.847Z,19.25
2016-05-05T09:57:11.833Z,19.25
2016-05-05T09:58:12.039Z,19.25
2016-05-05T09:59:11.683Z,19.25
2016-05-05T10:00:11.826Z,19.3
2016-05-05T10:01:11.813Z,19.32
2016-05-05T10:02:11.863Z,19.31
2016-05-05T10:03:11.818Z,19.3
2016-05-05T10:04:11.399Z,19.32
2016-05-05T10:05:11.589Z,19.35
2016-05-05T10:06:11.279Z,19.32
2016-05-05T10:07:11.985Z,19.13
2016-05-05T10:08:11.988Z,19.23
2016-05-05T10:09:12.068Z,19.15
2016-05-05T10:10:13.603Z,19.13
2016-05-05T10:11:11.809Z,19.12
2016-05-05T10:12:11.779Z,19.09
2016-05-05T10:13:11.768Z,19.17
2016-05-05T10:14:11.551Z,19.12
2016-05-05T10:15:11.553Z,19.12
2016-05-05T10:16:11.760Z,19.15
2016-05-05T10:17:11.403Z,19.13
2016-05-05T10:18:11.389Z,19.16
2016-05-05T10:19:11.940Z,19.13
2016-05-05T10:20:11.645Z,19.24
2016-05-05T10:21:11.522Z,19.09
2016-05-05T10:22:11.526Z,19.16
2016-05-05T10:23:11.934Z,19.1
2016-05-05T10:24:11.797Z,19.15
2016-05-05T10:25:11.768Z,19.17
2016-05-05T10:26:11.911Z,19.24
2016-05-05T10:27:11.695Z,19.23
2016-05-05T10:28:12.042Z,19.23
2016-05-05T10:29:11.700Z,19.28
2016-05-05T10:30:11.688Z,19.2
2016-05-05T10:31:11.721Z,19.25
2016-05-05T10:32:11.693Z,19.27
2016-05-05T10:33:11.884Z,19.27
2016-05-05T10:34:11.652Z,19.28
2016-05-05T10:35:11.327Z,19.31
2016-05-05T10:36:11.454Z,19.23
2016-05-05T10:37:11.472Z,19.27
2016-05-05T10:38:11.647Z,19.27
2016-05-05T10:39:11.446Z,19.25
2016-05-05T10:40:11.824Z,19.3
2016-05-05T10:41:11.436Z,19.28
2016-05-05T10:42:11.110Z,19.32
2016-05-05T10:43:11.629Z,19.3
2016-05-05T10:44:11.257Z,19.34
2016-05-05T10:45:11.431Z,19.37
2016-05-05T10:46:11.403Z,19.35
2016-05-05T10:47:11.406Z,19.32
2016-05-05T10:48:11.799Z,19.34
2016-05-05T10:49:11.598Z,19.35
2016-05-05T10:50:11.429Z,19.35
2016-05-05T10:51:11.384Z,19.3
2016-05-05T10:52:11.372Z,19.4
2016-05-05T10:53:11.375Z,19.31
2016-05-05T10:54:11.361Z,19.32
2016-05-05T10:55:11.442Z,19.25
2016-05-05T10:56:11.320Z,19.32
2016-05-05T10:57:11.761Z,19.31
2016-05-05T10:58:11.544Z,19.2
2016-05-05T10:59:11.595Z,19.35
2016-05-05T11:00:11.422Z,19.35
2016-05-05T11:01:11.859Z,19.4
2016-05-05T11:02:11.687Z,19.37
2016-05-05T11:03:11.733Z,19.43
2016-05-05T11:04:11.540Z,19.35
2016-05-05T11:05:11.356Z,19.35
2016-05-05T11:06:11.577Z,19.4
2016-05-05T11:07:11.627Z,19.32
2016-05-05T11:08:11.786Z,19.2
2016-05-05T11:09:11.392Z,19.32
2016-05-05T11:10:11.447Z,19.34
2016-05-05T11:11:11.798Z,19.25
2016-05-05T11:12:11.634Z,19.27
2016-05-05T11:13:11.846Z,19.28
2016-05-05T11:14:11.429Z,19.2
2016-05-05T11:15:11.793Z,19.3
2016-05-05T11:16:11.625Z,19.4
2016-05-05T11:17:11.990Z,19.42
2016-05-05T11:18:11.572Z,19.5
2016-05-05T11:19:11.764Z,19.42
2016-05-05T11:20:11.564Z,19.46
2016-05-05T11:21:11.567Z,19.47
2016-05-05T11:22:11.555Z,19.49
2016-05-05T11:23:11.587Z,19.57
2016-05-05T11:24:11.762Z,19.57
2016-05-05T11:25:11.452Z,19.53
2016-05-05T11:26:11.596Z,19.6
2016-05-05T11:27:11.536Z,19.61
2016-05-05T11:28:11.727Z,19.67
2016-05-05T11:29:11.730Z,19.68
2016-05-05T11:30:11.717Z,19.71
2016-05-05T11:31:11.719Z,19.75
2016-05-05T11:32:11.723Z,19.8
2016-05-05T11:33:11.711Z,19.75
2016-05-05T11:34:11.916Z,19.83
2016-05-05T11:35:11.511Z,19.8
2016-05-05T11:36:11.702Z,19.86
2016-05-05T11:37:11.908Z,19.89
2016-05-05T11:38:11.535Z,19.9
2016-05-05T11:39:11.694Z,19.92
2016-05-05T11:40:11.292Z,19.93
2016-05-05T11:41:11.310Z,19.93
2016-05-05T11:42:11.703Z,19.95
2016-05-05T11:43:11.721Z,19.97
2016-05-05T11:44:11.661Z,19.98
2016-05-05T11:45:11.695Z,20
2016-05-05T11:46:11.464Z,20
2016-05-05T11:47:11.654Z,20.04
2016-05-05T11:48:11.641Z,20.15
2016-05-05T11:49:11.706Z,20.1
2016-05-05T11:50:11.443Z,20.07
2016-05-05T11:51:11.649Z,20.15
2016-05-05T11:52:11.432Z,20.15
2016-05-05T11:53:11.639Z,20.19
2016-05-05T11:54:11.298Z,20.22
2016-05-05T11:55:11.926Z,20.22
2016-05-05T11:56:11.632Z,20.2
2016-05-05T11:57:11.618Z,20.32
2016-05-05T11:58:11.606Z,20.23
2016-05-05T11:59:11.842Z,20.26
2016-05-05T12:00:11.454Z,20.29
2016-05-05T12:01:11.628Z,20.37
2016-05-05T12:02:11.819Z,20.35
2016-05-05T12:03:11.806Z,20.3
2016-05-05T12:04:11.403Z,20.4
2016-05-05T12:05:11.625Z,20.3
2016-05-05T12:06:11.189Z,20.42
2016-05-05T12:07:11.458Z,20.44
2016-05-05T12:08:11.585Z,20.42
2016-05-05T12:09:11.197Z,20.42
2016-05-05T12:10:11.263Z,20.56
2016-05-05T12:11:11.781Z,20.53
2016-05-05T12:12:11.783Z,20.54
2016-05-05T12:13:11.568Z,20.56
2016-05-05T12:14:11.210Z,20.54
2016-05-05T12:15:11.213Z,20.64
2016-05-05T12:16:11.559Z,20.63
2016-05-05T12:17:11.563Z,20.63
2016-05-05T12:18:11.410Z,20.72
2016-05-05T12:19:11.412Z,20.68
2016-05-05T12:20:11.758Z,20.66
2016-05-05T12:21:11.339Z,20.67
2016-05-05T12:22:11.763Z,20.74
2016-05-05T12:23:11.344Z,20.74
2016-05-05T12:24:11.550Z,20.74
2016-05-05T12:25:11.194Z,20.74
2016-05-05T12:26:11.540Z,20.81
2016-05-05T12:27:11.527Z,20.81
2016-05-05T12:28:11.529Z,20.85
2016-05-05T12:29:11.736Z,20.88
2016-05-05T12:30:11.519Z,20.85
2016-05-05T12:31:11.367Z,20.9
2016-05-05T12:32:11.728Z,20.94
2016-05-05T12:33:11.105Z,20.98
2016-05-05T12:34:11.124Z,20.94
2016-05-05T12:35:11.517Z,20.96
2016-05-05T12:36:11.504Z,20.97
2016-05-05T12:37:11.507Z,21.03
2016-05-05T12:38:11.525Z,21.01
2016-05-05T12:39:11.309Z,21
2016-05-05T12:40:11.890Z,21
2016-05-05T12:41:11.502Z,21.03
2016-05-05T12:42:11.302Z,21.04
2016-05-05T12:43:10.929Z,21.08
2016-05-05T12:44:11.494Z,21.08
2016-05-05T12:45:11.497Z,21.03
2016-05-05T12:46:11.485Z,21.13
2016-05-05T12:47:11.705Z,21.06
2016-05-05T12:48:11.302Z,21.19
2016-05-05T12:49:11.493Z,21.16
2016-05-05T12:50:11.292Z,21.18
2016-05-05T12:51:11.482Z,21.11
2016-05-05T12:52:11.687Z,21.13
2016-05-05T12:53:11.128Z,21.15
2016-05-05T12:54:11.474Z,21.23
2016-05-05T12:55:11.321Z,21.22
2016-05-05T12:56:11.105Z,21.25